createdAt,value
2023-12-11T00:00:41.306Z,4.20
2023-12-11T00:03:09.051Z,5.65
2023-12-11T00:05:40.599Z,4.93
2023-12-11T00:08:08.788Z,2.10
2023-12-11T00:10:36.329Z,3.90
2023-12-11T00:13:04.660Z,3.60
2023-12-11T00:15:32.677Z,3.22
2023-12-11T00:18:00.615Z,4.40
2023-12-11T00:20:28.527Z,3.03
2023-12-11T00:22:56.261Z,2.22
2023-12-11T00:25:24.121Z,2.65
2023-12-11T00:27:52.441Z,1.98
2023-12-11T00:30:20.574Z,1.52
2023-12-11T00:32:48.276Z,3.90
2023-12-11T00:35:16.434Z,1.45
2023-12-11T00:37:44.043Z,4.28
2023-12-11T00:40:11.961Z,2.28
2023-12-11T00:42:39.633Z,4.30
2023-12-11T00:45:08.006Z,1.48
2023-12-11T00:47:35.822Z,1.70
2023-12-11T00:50:06.482Z,2.85
2023-12-11T00:52:35.164Z,4.03
2023-12-11T00:55:03.936Z,3.45
2023-12-11T00:57:32.033Z,3.72
2023-12-11T01:00:00.023Z,3.72
2023-12-11T01:02:27.721Z,3.42
2023-12-11T01:04:56.047Z,2.97
2023-12-11T01:07:23.667Z,2.28
2023-12-11T01:09:51.500Z,4.28
2023-12-11T01:12:19.351Z,4.03
2023-12-11T01:14:47.288Z,3.85
2023-12-11T01:17:37.152Z,4.13
2023-12-11T01:20:03.931Z,5.53
2023-12-11T01:22:31.656Z,7.35
2023-12-11T01:25:03.030Z,3.58
2023-12-11T01:27:31.659Z,2.00
2023-12-11T01:30:00.312Z,6.18
2023-12-11T01:32:28.357Z,4.80
2023-12-11T01:34:56.221Z,4.55
2023-12-11T01:37:23.988Z,6.68
2023-12-11T01:39:51.790Z,8.68
2023-12-11T01:42:19.470Z,2.40
2023-12-11T01:44:47.393Z,6.53
2023-12-11T01:47:15.216Z,7.53
2023-12-11T01:49:43.130Z,7.53
2023-12-11T01:52:11.097Z,4.40
2023-12-11T01:54:40.553Z,6.85
2023-12-11T01:57:09.451Z,4.90
2023-12-11T01:59:38.421Z,6.35
2023-12-11T02:02:06.252Z,6.40
2023-12-11T02:04:34.342Z,8.15
2023-12-11T02:07:02.083Z,4.97
2023-12-11T02:09:29.894Z,4.30
2023-12-11T02:11:57.754Z,6.07
2023-12-11T02:14:25.476Z,7.18
2023-12-11T02:16:54.660Z,3.70
2023-12-11T02:19:22.637Z,10.57
2023-12-11T02:21:50.361Z,4.82
2023-12-11T02:24:22.770Z,6.05
2023-12-11T02:26:50.607Z,4.80
2023-12-11T02:29:18.333Z,6.20
2023-12-11T02:31:46.187Z,7.82
2023-12-11T02:34:13.989Z,5.75
2023-12-11T02:36:41.803Z,13.95
2023-12-11T02:39:09.779Z,7.88
2023-12-11T02:41:37.563Z,10.10
2023-12-11T02:44:05.439Z,7.45
2023-12-11T02:46:35.001Z,6.63
2023-12-11T02:49:02.921Z,9.68
2023-12-11T02:51:30.839Z,3.85
2023-12-11T02:53:58.862Z,10.52
2023-12-11T02:56:26.568Z,9.43
2023-12-11T02:58:54.474Z,7.40
2023-12-11T03:01:22.373Z,7.95
2023-12-11T03:03:50.232Z,7.28
2023-12-11T03:06:21.376Z,6.72
2023-12-11T03:08:49.255Z,9.73
2023-12-11T03:11:17.081Z,8.68
2023-12-11T03:13:44.737Z,6.30
2023-12-11T03:16:17.528Z,6.25
2023-12-11T03:18:45.569Z,8.30
2023-12-11T03:21:13.524Z,10.40
2023-12-11T03:23:41.670Z,6.43
2023-12-11T03:26:09.425Z,7.97
2023-12-11T03:28:37.127Z,7.13
2023-12-11T03:31:05.135Z,6.63
2023-12-11T03:33:32.930Z,10.45
2023-12-11T03:36:00.916Z,9.95
2023-12-11T03:38:28.655Z,8.65
2023-12-11T03:40:56.362Z,8.13
2023-12-11T03:43:24.394Z,9.82
2023-12-11T03:45:56.358Z,7.90
2023-12-11T03:48:24.421Z,7.43
2023-12-11T03:50:54.989Z,8.40
2023-12-11T03:53:22.842Z,4.40
2023-12-11T03:55:51.515Z,6.20
2023-12-11T03:58:19.322Z,6.10
2023-12-11T04:00:47.137Z,4.32
2023-12-11T04:03:15.348Z,7.70
2023-12-11T04:05:43.306Z,10.18
2023-12-11T04:08:11.080Z,3.05
2023-12-11T04:10:38.784Z,3.97
2023-12-11T04:13:06.593Z,7.90
2023-12-11T04:15:34.726Z,5.63
2023-12-11T04:18:02.981Z,4.95
2023-12-11T04:20:30.683Z,9.27
2023-12-11T04:22:58.348Z,4.93
2023-12-11T04:25:26.129Z,6.57
2023-12-11T04:27:53.809Z,7.45
2023-12-11T04:30:21.485Z,5.30
2023-12-11T04:32:49.410Z,7.88
2023-12-11T04:35:17.220Z,9.18
2023-12-11T04:37:44.774Z,5.95
2023-12-11T04:40:13.521Z,13.48
2023-12-11T04:42:41.400Z,12.82
2023-12-11T04:45:09.567Z,14.82
2023-12-11T04:47:37.473Z,8.20
2023-12-11T04:50:05.571Z,8.52
2023-12-11T04:52:33.280Z,10.30
2023-12-11T04:55:01.025Z,7.07
2023-12-11T04:57:29.340Z,5.53
2023-12-11T04:59:57.279Z,8.93
2023-12-11T05:05:17.744Z,7.65
2023-12-11T05:07:45.330Z,5.72
2023-12-11T05:10:13.214Z,15.70
2023-12-11T05:12:41.028Z,8.52
2023-12-11T05:15:08.997Z,7.20
2023-12-11T05:17:36.776Z,6.28
2023-12-11T05:20:04.845Z,5.47
2023-12-11T05:22:32.679Z,8.40
2023-12-11T05:25:01.049Z,8.90
2023-12-11T05:27:28.995Z,9.15
2023-12-11T05:29:58.029Z,9.50
2023-12-11T05:32:25.784Z,10.68
2023-12-11T05:34:53.594Z,8.20
2023-12-11T05:37:21.697Z,7.53
2023-12-11T05:39:57.690Z,6.13
2023-12-11T05:42:37.366Z,7.70
2023-12-11T05:45:05.312Z,6.85
2023-12-11T05:47:33.534Z,7.22
2023-12-11T05:50:01.693Z,7.88
2023-12-11T05:52:29.890Z,9.02
2023-12-11T05:54:57.729Z,5.65
2023-12-11T05:57:25.782Z,4.88
2023-12-11T05:59:56.961Z,7.47
2023-12-11T06:02:26.335Z,7.20
2023-12-11T06:04:54.294Z,5.63
2023-12-11T06:07:22.172Z,6.85
2023-12-11T06:09:50.241Z,10.70
2023-12-11T06:12:17.974Z,6.38
2023-12-11T06:14:48.449Z,4.80
2023-12-11T06:19:45.614Z,11.40
2023-12-11T06:22:13.513Z,5.35
2023-12-11T06:24:42.597Z,5.65
2023-12-11T06:27:11.082Z,6.45
2023-12-11T06:29:39.690Z,8.18
2023-12-11T06:32:08.061Z,7.93
2023-12-11T06:34:36.966Z,8.13
2023-12-11T06:37:05.100Z,9.52
2023-12-11T06:39:33.598Z,13.65
2023-12-11T06:42:01.354Z,4.65
2023-12-11T06:44:29.073Z,4.03
2023-12-11T06:46:57.396Z,11.93
2023-12-11T06:49:25.471Z,4.78
2023-12-11T06:51:54.372Z,8.40
2023-12-11T06:54:22.215Z,12.05
2023-12-11T06:56:50.150Z,6.00
2023-12-11T06:59:17.790Z,5.85
2023-12-11T07:01:45.605Z,8.35
2023-12-11T07:04:13.465Z,9.15
2023-12-11T07:06:44.111Z,4.22
2023-12-11T07:09:11.880Z,7.40
2023-12-11T07:11:42.671Z,9.25
2023-12-11T07:14:10.391Z,5.80
2023-12-11T07:16:38.086Z,6.78
2023-12-11T07:19:05.942Z,5.70
2023-12-11T07:21:33.777Z,7.18
2023-12-11T07:24:01.571Z,5.75
2023-12-11T07:26:29.172Z,5.97
2023-12-11T07:28:56.966Z,4.72
2023-12-11T07:31:24.762Z,8.30
2023-12-11T07:33:55.246Z,6.75
2023-12-11T07:36:24.616Z,3.60
2023-12-11T07:38:52.132Z,10.55
2023-12-11T07:41:23.954Z,6.70
2023-12-11T07:43:52.589Z,5.63
2023-12-11T07:46:21.401Z,7.60
2023-12-11T07:48:50.140Z,5.95
2023-12-11T07:51:19.068Z,7.07
2023-12-11T07:53:47.987Z,7.50
2023-12-11T07:56:26.370Z,8.02
2023-12-11T07:58:54.738Z,12.00
2023-12-11T08:01:22.473Z,4.47
2023-12-11T08:03:50.447Z,5.47
2023-12-11T08:06:18.601Z,4.50
2023-12-11T08:08:46.390Z,4.20
2023-12-11T08:11:26.984Z,2.97
2023-12-11T08:13:55.097Z,4.18
2023-12-11T08:16:24.722Z,1.70
2023-12-11T08:18:52.542Z,1.58
2023-12-11T08:21:20.563Z,2.75
2023-12-11T08:23:49.298Z,2.47
2023-12-11T08:26:21.290Z,2.47
2023-12-11T08:28:52.150Z,4.95
2023-12-11T08:31:19.911Z,4.05
2023-12-11T08:33:47.963Z,1.75
2023-12-11T08:36:15.760Z,4.03
2023-12-11T08:38:43.569Z,1.27
2023-12-11T08:41:11.477Z,2.67
2023-12-11T08:43:39.229Z,2.38
2023-12-11T08:46:07.107Z,2.97
2023-12-11T08:48:38.206Z,0.77
2023-12-11T08:51:06.466Z,2.58
2023-12-11T08:53:34.046Z,0.80
2023-12-11T08:56:02.676Z,2.42
2023-12-11T08:58:30.282Z,5.57
2023-12-11T09:00:58.087Z,3.88
2023-12-11T09:03:25.875Z,3.03
2023-12-11T09:05:57.261Z,3.45
2023-12-11T09:08:25.463Z,2.00
2023-12-11T09:10:53.110Z,4.20
2023-12-11T09:13:20.868Z,6.55
2023-12-11T09:15:48.889Z,2.53
2023-12-11T09:18:17.323Z,2.78
2023-12-11T09:20:45.396Z,2.42
2023-12-11T09:23:13.125Z,5.07
2023-12-11T09:25:40.760Z,2.72
2023-12-11T09:28:08.737Z,1.92
2023-12-11T09:30:37.530Z,1.40
2023-12-11T09:33:06.093Z,7.28
2023-12-11T09:35:34.002Z,4.78
2023-12-11T09:38:02.436Z,3.45
2023-12-11T09:40:30.201Z,4.57
2023-12-11T09:42:57.996Z,7.25
2023-12-11T09:45:25.833Z,4.47
2023-12-11T09:48:04.922Z,3.17
2023-12-11T09:50:39.831Z,4.85
2023-12-11T09:53:07.592Z,4.10
2023-12-11T09:55:35.968Z,4.75
2023-12-11T09:58:05.892Z,8.23
2023-12-11T10:00:33.833Z,5.30
2023-12-11T10:03:03.214Z,3.38
2023-12-11T10:05:32.151Z,6.63
2023-12-11T10:08:00.350Z,4.25
2023-12-11T10:10:33.103Z,5.45
2023-12-11T10:13:02.713Z,2.22
2023-12-11T10:15:32.110Z,3.30
2023-12-11T10:18:04.077Z,2.83
2023-12-11T10:20:33.187Z,5.10
2023-12-11T10:23:24.649Z,6.00
2023-12-11T10:26:05.312Z,5.65
2023-12-11T10:28:33.344Z,4.53
2023-12-11T10:31:03.103Z,3.28
2023-12-11T10:33:35.033Z,3.97
2023-12-11T10:36:17.627Z,3.38
2023-12-11T10:38:45.644Z,4.22
2023-12-11T10:41:28.652Z,5.05
2023-12-11T10:44:08.454Z,3.33
2023-12-11T10:46:44.172Z,7.30
2023-12-11T10:49:12.058Z,4.38
2023-12-11T10:51:43.389Z,3.33
2023-12-11T10:54:11.112Z,4.55
2023-12-11T10:56:39.335Z,3.47
2023-12-11T10:59:07.782Z,4.57
2023-12-11T11:01:42.670Z,3.38
2023-12-11T11:04:11.171Z,2.47
2023-12-11T11:07:08.710Z,3.00
2023-12-11T11:09:42.094Z,1.77
2023-12-11T11:12:40.113Z,2.42
2023-12-11T11:15:10.559Z,6.15
2023-12-11T11:17:58.220Z,0.70
2023-12-11T11:20:30.177Z,3.00
2023-12-11T11:23:16.670Z,2.85
2023-12-11T11:25:52.469Z,2.63
2023-12-11T11:28:43.872Z,3.13
2023-12-11T11:31:20.331Z,3.05
2023-12-11T11:33:57.037Z,1.38
2023-12-11T11:36:46.425Z,3.83
2023-12-11T11:39:14.603Z,2.30
2023-12-11T11:41:44.482Z,2.28
2023-12-11T11:44:12.479Z,2.65
2023-12-11T11:47:09.263Z,1.63
2023-12-11T11:49:37.376Z,3.40
2023-12-11T11:52:09.660Z,2.92
2023-12-11T11:54:39.040Z,3.20
2023-12-11T11:57:13.169Z,1.90
2023-12-11T11:59:54.549Z,2.17
2023-12-11T12:02:26.091Z,5.00
2023-12-11T12:04:53.897Z,1.55
2023-12-11T12:07:23.685Z,3.22
2023-12-11T12:09:54.673Z,3.72
2023-12-11T12:12:22.487Z,2.50
2023-12-11T12:15:05.972Z,2.78
2023-12-11T12:17:34.264Z,4.00
2023-12-11T12:20:13.915Z,3.72
2023-12-11T12:23:01.452Z,3.35
2023-12-11T12:25:30.544Z,3.13
2023-12-11T12:28:12.829Z,1.85
2023-12-11T12:30:40.923Z,1.45
2023-12-11T12:33:11.212Z,3.72
2023-12-11T12:35:39.374Z,2.67
2023-12-11T12:38:08.886Z,2.13
2023-12-11T12:40:37.210Z,1.70
2023-12-11T12:43:12.545Z,3.22
2023-12-11T12:45:40.951Z,1.38
2023-12-11T12:48:12.339Z,2.70
2023-12-11T12:50:40.062Z,1.92
2023-12-11T12:53:12.754Z,0.93
2023-12-11T12:55:40.886Z,1.27
2023-12-11T12:58:11.424Z,0.73
2023-12-11T13:00:43.817Z,0.77
2023-12-11T13:03:11.592Z,3.17
2023-12-11T13:05:43.851Z,1.75
2023-12-11T13:08:12.105Z,1.38
2023-12-11T13:10:39.968Z,1.23
2023-12-11T13:13:16.229Z,1.48
2023-12-11T13:15:44.253Z,0.52
2023-12-11T13:18:16.816Z,2.35
2023-12-11T13:20:45.088Z,2.28
2023-12-11T13:23:13.031Z,1.75
2023-12-11T13:25:41.181Z,1.08
2023-12-11T13:28:09.227Z,3.17
2023-12-11T13:30:37.233Z,1.35
2023-12-11T13:33:06.479Z,1.20
2023-12-11T13:35:34.474Z,0.80
2023-12-11T13:38:09.064Z,2.03
2023-12-11T13:40:36.598Z,1.08
2023-12-11T13:43:04.440Z,5.25
2023-12-11T13:45:32.266Z,1.23
2023-12-11T13:48:00.007Z,3.17
2023-12-11T13:50:27.755Z,1.23
2023-12-11T13:52:55.530Z,1.85
2023-12-11T13:55:23.365Z,0.95
2023-12-11T13:57:51.085Z,1.15
2023-12-11T14:00:18.859Z,1.08
2023-12-11T14:03:00.643Z,0.90
2023-12-11T14:05:34.552Z,3.90
2023-12-11T14:08:04.583Z,1.95
2023-12-11T14:10:34.980Z,0.80
2023-12-11T14:13:02.903Z,2.60
2023-12-11T14:15:30.720Z,0.88
2023-12-11T14:17:58.881Z,2.85
2023-12-11T14:20:26.736Z,1.13
2023-12-11T14:22:54.458Z,1.27
2023-12-11T14:25:22.458Z,2.55
2023-12-11T14:27:50.242Z,1.08
2023-12-11T14:30:18.328Z,1.08
2023-12-11T14:32:46.422Z,3.88
2023-12-11T14:35:14.437Z,1.67
2023-12-11T14:37:42.218Z,2.00
2023-12-11T14:40:10.502Z,1.50
2023-12-11T14:42:38.274Z,0.30
2023-12-11T14:45:08.290Z,1.25
2023-12-11T14:47:36.109Z,0.63
2023-12-11T14:50:04.417Z,1.17
2023-12-11T14:52:32.547Z,1.77
2023-12-11T14:55:01.098Z,2.13
2023-12-11T14:57:29.200Z,1.63
2023-12-11T14:59:56.912Z,0.65
2023-12-11T15:02:25.096Z,1.38
2023-12-11T15:04:52.906Z,1.15
2023-12-11T15:07:20.756Z,2.20
2023-12-11T15:09:49.217Z,2.58
2023-12-11T15:12:17.249Z,6.88
2023-12-11T15:14:45.320Z,2.33
2023-12-11T15:17:13.166Z,4.18
2023-12-11T15:19:42.524Z,2.08
2023-12-11T15:22:10.641Z,1.10
2023-12-11T15:24:38.465Z,1.77
2023-12-11T15:27:06.191Z,1.48
2023-12-11T15:29:36.000Z,2.85
2023-12-11T15:32:04.039Z,2.78
2023-12-11T15:34:33.059Z,1.65
2023-12-11T15:37:01.108Z,2.63
2023-12-11T15:39:28.943Z,2.08
2023-12-11T15:41:56.486Z,5.03
2023-12-11T15:44:27.321Z,4.88
2023-12-11T15:46:55.241Z,6.43
2023-12-11T15:49:23.327Z,6.53
2023-12-11T15:51:53.371Z,1.83
2023-12-11T15:54:21.527Z,3.38
2023-12-11T15:56:49.337Z,2.30
2023-12-11T15:59:17.117Z,5.35
2023-12-11T16:01:45.427Z,1.98
2023-12-11T16:04:13.441Z,5.40
2023-12-11T16:06:42.146Z,3.20
2023-12-11T16:09:12.166Z,4.47
2023-12-11T16:11:40.213Z,5.05
2023-12-11T16:14:08.153Z,3.28
2023-12-11T16:16:36.009Z,2.90
2023-12-11T16:19:04.381Z,3.70
2023-12-11T16:21:32.462Z,3.72
2023-12-11T16:24:01.358Z,3.03
2023-12-11T16:26:29.269Z,2.63
2023-12-11T16:28:59.585Z,2.38
2023-12-11T16:31:27.574Z,2.53
2023-12-11T16:33:55.710Z,5.95
2023-12-11T16:36:23.548Z,3.90
2023-12-11T16:38:51.462Z,2.47
2023-12-11T16:41:30.722Z,1.80
2023-12-11T16:43:58.468Z,2.70
2023-12-11T16:46:26.582Z,3.22
2023-12-11T16:48:54.500Z,2.58
2023-12-11T16:51:22.724Z,5.82
2023-12-11T16:53:50.559Z,2.88
2023-12-11T16:56:18.265Z,1.08
2023-12-11T16:58:46.111Z,3.13
2023-12-11T17:01:14.926Z,2.03
2023-12-11T17:03:43.500Z,0.90
2023-12-11T17:06:24.333Z,1.58
2023-12-11T17:08:51.893Z,1.95
2023-12-11T17:11:19.548Z,1.45
2023-12-11T17:13:47.272Z,1.75
2023-12-11T17:16:14.988Z,2.22
2023-12-11T17:18:44.411Z,3.55
2023-12-11T17:21:21.916Z,3.25
2023-12-11T17:23:53.244Z,1.90
2023-12-11T17:26:22.992Z,1.70
2023-12-11T17:28:51.328Z,1.17
2023-12-11T17:31:19.403Z,1.90
2023-12-11T17:33:47.310Z,2.38
2023-12-11T17:36:15.320Z,1.88
2023-12-11T17:38:43.057Z,1.48
2023-12-11T17:41:10.758Z,0.70
2023-12-11T17:43:38.543Z,2.83
2023-12-11T17:46:06.454Z,1.27
2023-12-11T17:48:34.210Z,1.02
2023-12-11T17:51:06.759Z,0.60
2023-12-11T17:53:35.383Z,0.93
2023-12-11T17:56:03.496Z,1.45
2023-12-11T17:58:31.159Z,2.15
2023-12-11T18:00:59.127Z,1.23
2023-12-11T18:03:26.787Z,1.00
2023-12-11T18:05:54.400Z,2.55
2023-12-11T18:08:24.491Z,1.90
2023-12-11T18:10:52.113Z,0.98
2023-12-11T18:13:20.106Z,0.68
2023-12-11T18:15:48.692Z,1.25
2023-12-11T18:18:16.518Z,2.08
2023-12-11T18:20:44.326Z,1.20
2023-12-11T18:23:12.891Z,1.10
2023-12-11T18:25:40.600Z,1.20
2023-12-11T18:28:08.676Z,1.02
2023-12-11T18:30:36.498Z,2.05
2023-12-11T18:33:04.282Z,0.77
2023-12-11T18:35:32.211Z,1.25
2023-12-11T18:37:59.958Z,2.47
2023-12-11T18:40:29.742Z,4.82
2023-12-11T18:42:57.453Z,1.40
2023-12-11T18:45:27.952Z,0.63
2023-12-11T18:47:55.785Z,1.70
2023-12-11T18:50:23.673Z,6.45
2023-12-11T18:52:55.376Z,2.28
2023-12-11T18:55:25.148Z,2.60
2023-12-11T18:57:53.737Z,0.40
2023-12-11T19:00:21.935Z,3.50
2023-12-11T19:02:50.107Z,2.70
2023-12-11T19:05:18.830Z,0.57
2023-12-11T19:07:46.840Z,0.65
2023-12-11T19:10:14.834Z,2.03
2023-12-11T19:12:42.478Z,0.70
2023-12-11T19:15:10.400Z,2.00
2023-12-11T19:17:38.173Z,1.73
2023-12-11T19:20:06.560Z,1.58
2023-12-11T19:22:34.271Z,1.23
2023-12-11T19:25:02.205Z,4.13
2023-12-11T19:27:30.176Z,0.77
2023-12-11T19:30:00.425Z,1.52
2023-12-11T19:32:28.603Z,2.42
2023-12-11T19:34:56.851Z,4.25
2023-12-11T19:37:24.770Z,1.40
2023-12-11T19:39:52.617Z,1.75
2023-12-11T19:42:20.445Z,0.57
2023-12-11T19:44:48.366Z,0.57
2023-12-11T19:47:18.266Z,0.75
2023-12-11T19:49:46.454Z,1.80
2023-12-11T19:52:15.894Z,0.47
2023-12-11T19:54:44.766Z,1.23
2023-12-11T19:57:12.673Z,2.00
2023-12-11T19:59:40.415Z,0.75
2023-12-11T20:02:09.666Z,1.92
2023-12-11T20:04:40.349Z,2.20
2023-12-11T20:07:09.086Z,1.10
2023-12-11T20:09:37.127Z,0.70
2023-12-11T20:12:11.161Z,2.55
2023-12-11T20:14:42.377Z,0.50
2023-12-11T20:17:10.442Z,1.00
2023-12-11T20:19:39.614Z,0.55
2023-12-11T20:22:07.543Z,0.68
2023-12-11T20:24:35.528Z,2.30
2023-12-11T20:27:04.351Z,1.27
2023-12-11T20:29:32.030Z,0.80
2023-12-11T20:31:59.769Z,1.08
2023-12-11T20:34:27.426Z,2.58
2023-12-11T20:36:55.568Z,1.30
2023-12-11T20:39:23.406Z,1.10
2023-12-11T20:41:51.219Z,1.20
2023-12-11T20:44:18.834Z,1.05
2023-12-11T20:46:49.376Z,1.35
2023-12-11T20:49:17.336Z,3.13
2023-12-11T20:51:45.268Z,3.40
2023-12-11T20:54:15.249Z,0.32
2023-12-11T20:56:44.354Z,1.08
2023-12-11T20:59:12.347Z,1.52
2023-12-11T21:01:40.317Z,0.68
2023-12-11T21:04:09.435Z,1.40
2023-12-11T21:06:37.762Z,5.10
2023-12-11T21:09:09.161Z,0.50
2023-12-11T21:11:38.205Z,0.80
2023-12-11T21:14:06.064Z,0.82
2023-12-11T21:16:35.228Z,1.30
2023-12-11T21:19:04.053Z,0.75
2023-12-11T21:21:32.084Z,1.92
2023-12-11T21:23:59.900Z,1.98
2023-12-11T21:26:30.226Z,1.35
2023-12-11T21:28:58.486Z,2.15
2023-12-11T21:31:28.102Z,1.27
2023-12-11T21:33:58.309Z,3.42
2023-12-11T21:36:28.943Z,1.02
2023-12-11T21:38:56.794Z,0.75
2023-12-11T21:41:24.849Z,1.13
2023-12-11T21:43:53.599Z,0.95
2023-12-11T21:46:22.124Z,1.00
2023-12-11T21:48:50.513Z,1.77
2023-12-11T21:51:20.042Z,0.80
2023-12-11T21:53:48.861Z,1.65
2023-12-11T21:56:16.546Z,0.60
2023-12-11T21:58:44.669Z,1.63
2023-12-11T22:01:12.686Z,0.90
2023-12-11T22:03:40.412Z,1.67
2023-12-11T22:06:08.522Z,1.85
2023-12-11T22:08:36.311Z,1.15
2023-12-11T22:11:04.000Z,0.65
2023-12-11T22:13:31.806Z,0.63
2023-12-11T22:15:59.679Z,1.20
2023-12-11T22:18:28.809Z,0.77
2023-12-11T22:20:56.875Z,1.50
2023-12-11T22:23:24.621Z,0.73
2023-12-11T22:25:52.338Z,1.10
2023-12-11T22:28:19.950Z,1.45
2023-12-11T22:30:47.763Z,0.88
2023-12-11T22:33:15.498Z,2.17
2023-12-11T22:35:43.246Z,2.00
2023-12-11T22:38:13.041Z,2.13
2023-12-11T22:40:41.591Z,1.65
2023-12-11T22:43:09.767Z,0.65
2023-12-11T22:45:38.789Z,1.90
2023-12-11T22:48:07.208Z,7.10
2023-12-11T22:50:35.142Z,1.35
2023-12-11T22:53:03.035Z,2.40
2023-12-11T22:55:33.002Z,1.48
2023-12-11T22:58:09.900Z,3.80
2023-12-11T23:00:44.081Z,4.93
2023-12-11T23:03:12.153Z,1.10
2023-12-11T23:05:39.806Z,1.92
2023-12-11T23:08:07.705Z,0.93
2023-12-11T23:10:35.528Z,1.58
2023-12-11T23:13:03.862Z,1.00
2023-12-11T23:15:31.918Z,3.92
2023-12-11T23:18:00.425Z,3.90
2023-12-11T23:20:28.142Z,1.52
2023-12-11T23:22:56.539Z,4.40
2023-12-11T23:25:25.160Z,1.83
2023-12-11T23:27:53.089Z,1.08
2023-12-11T23:30:20.791Z,3.80
2023-12-11T23:32:48.717Z,1.63
2023-12-11T23:35:16.450Z,2.15
2023-12-11T23:37:47.090Z,6.18
2023-12-11T23:40:14.953Z,2.42
2023-12-11T23:42:42.640Z,4.10
2023-12-11T23:45:10.652Z,2.85
2023-12-11T23:47:38.774Z,4.05
2023-12-11T23:50:07.563Z,7.07
2023-12-11T23:52:35.278Z,2.97
2023-12-11T23:55:04.685Z,3.63
2023-12-11T23:57:32.796Z,4.63
